sensor_id;sensor_type;location;lat;lon;timestamp;temperature;humidity
24146;DHT22;12308;50.948;4.706;2023-04-24T00:00:42;10.90;99.90
24146;DHT22;12308;50.948;4.706;2023-04-24T00:03:10;10.90;99.90
24146;DHT22;12308;50.948;4.706;2023-04-24T00:05:36;11.00;99.90
24146;DHT22;12308;50.948;4.706;2023-04-24T00:08:02;10.90;99.90
24146;DHT22;12308;50.948;4.706;2023-04-24T00:10:28;10.80;99.90
24146;DHT22;12308;50.948;4.706;2023-04-24T00:12:53;11.00;99.90
24146;DHT22;12308;50.948;4.706;2023-04-24T00:15:19;11.00;99.90
24146;DHT22;12308;50.948;4.706;2023-04-24T00:17:45;11.00;99.90
24146;DHT22;12308;50.948;4.706;2023-04-24T00:20:11;10.90;99.90
24146;DHT22;12308;50.948;4.706;2023-04-24T00:22:37;10.80;99.90
24146;DHT22;12308;50.948;4.706;2023-04-24T00:25:03;10.90;99.90
24146;DHT22;12308;50.948;4.706;2023-04-24T00:27:28;11.00;99.90
24146;DHT22;12308;50.948;4.706;2023-04-24T00:29:54;11.00;99.90
24146;DHT22;12308;50.948;4.706;2023-04-24T00:32:20;11.10;99.90
24146;DHT22;12308;50.948;4.706;2023-04-24T00:34:45;10.90;99.90
24146;DHT22;12308;50.948;4.706;2023-04-24T00:37:11;11.00;99.90
24146;DHT22;12308;50.948;4.706;2023-04-24T00:39:37;11.00;99.90
24146;DHT22;12308;50.948;4.706;2023-04-24T00:42:02;10.80;99.90
24146;DHT22;12308;50.948;4.706;2023-04-24T00:44:28;10.90;99.90
24146;DHT22;12308;50.948;4.706;2023-04-24T00:46:55;10.90;99.90
24146;DHT22;12308;50.948;4.706;2023-04-24T00:49:23;11.00;99.90
24146;DHT22;12308;50.948;4.706;2023-04-24T00:51:49;10.80;99.90
24146;DHT22;12308;50.948;4.706;2023-04-24T00:54:17;10.80;99.90
24146;DHT22;12308;50.948;4.706;2023-04-24T00:56:44;10.80;99.90
24146;DHT22;12308;50.948;4.706;2023-04-24T00:59:10;10.80;99.90
24146;DHT22;12308;50.948;4.706;2023-04-24T01:01:36;10.70;99.90
24146;DHT22;12308;50.948;4.706;2023-04-24T01:04:03;10.70;99.90
24146;DHT22;12308;50.948;4.706;2023-04-24T01:06:29;10.50;99.90
24146;DHT22;12308;50.948;4.706;2023-04-24T01:08:58;10.60;99.90
24146;DHT22;12308;50.948;4.706;2023-04-24T01:11:26;10.50;99.90
24146;DHT22;12308;50.948;4.706;2023-04-24T01:13:52;10.50;99.90
24146;DHT22;12308;50.948;4.706;2023-04-24T01:16:18;10.50;99.90
24146;DHT22;12308;50.948;4.706;2023-04-24T01:18:47;10.60;99.90
24146;DHT22;12308;50.948;4.706;2023-04-24T01:21:15;10.60;99.90
24146;DHT22;12308;50.948;4.706;2023-04-24T01:23:44;10.50;99.90
24146;DHT22;12308;50.948;4.706;2023-04-24T01:26:11;10.60;99.90
24146;DHT22;12308;50.948;4.706;2023-04-24T01:28:37;10.60;99.90
24146;DHT22;12308;50.948;4.706;2023-04-24T01:31:03;10.60;99.90
24146;DHT22;12308;50.948;4.706;2023-04-24T01:33:28;10.70;99.90
24146;DHT22;12308;50.948;4.706;2023-04-24T01:35:54;10.70;99.90
24146;DHT22;12308;50.948;4.706;2023-04-24T01:38:20;10.70;99.90
24146;DHT22;12308;50.948;4.706;2023-04-24T01:40:46;10.60;99.90
24146;DHT22;12308;50.948;4.706;2023-04-24T01:43:13;10.60;99.90
24146;DHT22;12308;50.948;4.706;2023-04-24T01:45:39;10.70;99.90
24146;DHT22;12308;50.948;4.706;2023-04-24T01:48:04;10.60;99.90
24146;DHT22;12308;50.948;4.706;2023-04-24T01:50:30;10.60;99.90
24146;DHT22;12308;50.948;4.706;2023-04-24T01:52:56;10.50;99.90
24146;DHT22;12308;50.948;4.706;2023-04-24T01:55:22;10.60;99.90
24146;DHT22;12308;50.948;4.706;2023-04-24T01:57:49;10.60;99.90
24146;DHT22;12308;50.948;4.706;2023-04-24T02:00:15;10.60;99.90
24146;DHT22;12308;50.948;4.706;2023-04-24T02:02:41;10.50;99.90
24146;DHT22;12308;50.948;4.706;2023-04-24T02:05:08;10.60;99.90
24146;DHT22;12308;50.948;4.706;2023-04-24T02:07:33;10.60;99.90
24146;DHT22;12308;50.948;4.706;2023-04-24T02:09:59;10.40;99.90
24146;DHT22;12308;50.948;4.706;2023-04-24T02:12:25;10.40;99.90
24146;DHT22;12308;50.948;4.706;2023-04-24T02:14:50;10.40;99.90
24146;DHT22;12308;50.948;4.706;2023-04-24T02:17:17;10.20;99.90
24146;DHT22;12308;50.948;4.706;2023-04-24T02:19:44;10.20;99.90
24146;DHT22;12308;50.948;4.706;2023-04-24T02:22:10;10.30;99.90
24146;DHT22;12308;50.948;4.706;2023-04-24T02:24:36;10.20;99.90
24146;DHT22;12308;50.948;4.706;2023-04-24T02:27:02;10.30;99.90
24146;DHT22;12308;50.948;4.706;2023-04-24T02:29:28;10.30;99.90
24146;DHT22;12308;50.948;4.706;2023-04-24T02:31:54;10.30;99.90
24146;DHT22;12308;50.948;4.706;2023-04-24T02:34:20;10.30;99.90
24146;DHT22;12308;50.948;4.706;2023-04-24T02:36:45;10.20;99.90
24146;DHT22;12308;50.948;4.706;2023-04-24T02:39:11;10.10;99.90
24146;DHT22;12308;50.948;4.706;2023-04-24T02:41:37;10.10;99.90
24146;DHT22;12308;50.948;4.706;2023-04-24T02:44:02;10.00;99.90
24146;DHT22;12308;50.948;4.706;2023-04-24T02:46:28;10.00;99.90
24146;DHT22;12308;50.948;4.706;2023-04-24T02:48:54;10.00;99.90
24146;DHT22;12308;50.948;4.706;2023-04-24T02:51:19;10.00;99.90
24146;DHT22;12308;50.948;4.706;2023-04-24T02:53:45;10.20;99.90
24146;DHT22;12308;50.948;4.706;2023-04-24T02:56:11;10.20;99.90
24146;DHT22;12308;50.948;4.706;2023-04-24T02:58:37;10.00;99.90
24146;DHT22;12308;50.948;4.706;2023-04-24T03:01:03;10.00;99.90
24146;DHT22;12308;50.948;4.706;2023-04-24T03:03:29;10.00;99.90
24146;DHT22;12308;50.948;4.706;2023-04-24T03:05:55;9.90;99.90
24146;DHT22;12308;50.948;4.706;2023-04-24T03:08:21;9.90;99.90
24146;DHT22;12308;50.948;4.706;2023-04-24T03:10:46;9.90;99.90
24146;DHT22;12308;50.948;4.706;2023-04-24T03:13:12;9.80;99.90
24146;DHT22;12308;50.948;4.706;2023-04-24T03:15:38;9.80;99.90
24146;DHT22;12308;50.948;4.706;2023-04-24T03:18:04;9.70;99.90
24146;DHT22;12308;50.948;4.706;2023-04-24T03:20:29;9.80;99.90
24146;DHT22;12308;50.948;4.706;2023-04-24T03:22:55;9.80;99.90
24146;DHT22;12308;50.948;4.706;2023-04-24T03:25:22;9.80;99.90
24146;DHT22;12308;50.948;4.706;2023-04-24T03:27:48;9.80;99.90
24146;DHT22;12308;50.948;4.706;2023-04-24T03:30:13;9.80;99.90
24146;DHT22;12308;50.948;4.706;2023-04-24T03:32:39;9.70;99.90
24146;DHT22;12308;50.948;4.706;2023-04-24T03:35:06;9.80;99.90
24146;DHT22;12308;50.948;4.706;2023-04-24T03:37:33;9.70;99.90
24146;DHT22;12308;50.948;4.706;2023-04-24T03:39:59;9.70;99.90
24146;DHT22;12308;50.948;4.706;2023-04-24T03:42:25;9.70;99.90
24146;DHT22;12308;50.948;4.706;2023-04-24T03:44:51;9.70;99.90
24146;DHT22;12308;50.948;4.706;2023-04-24T03:47:16;9.70;99.90
24146;DHT22;12308;50.948;4.706;2023-04-24T03:49:42;9.70;99.90
24146;DHT22;12308;50.948;4.706;2023-04-24T03:52:08;9.70;99.90
24146;DHT22;12308;50.948;4.706;2023-04-24T03:54:33;9.70;99.90
24146;DHT22;12308;50.948;4.706;2023-04-24T03:56:59;9.70;99.90
24146;DHT22;12308;50.948;4.706;2023-04-24T03:59:25;9.60;99.90
24146;DHT22;12308;50.948;4.706;2023-04-24T04:01:51;9.50;99.90
24146;DHT22;12308;50.948;4.706;2023-04-24T04:04:16;9.50;99.90
24146;DHT22;12308;50.948;4.706;2023-04-24T04:06:42;9.50;99.90
24146;DHT22;12308;50.948;4.706;2023-04-24T04:09:09;9.60;99.90
24146;DHT22;12308;50.948;4.706;2023-04-24T04:11:35;9.50;99.90
24146;DHT22;12308;50.948;4.706;2023-04-24T04:14:01;9.60;99.90
24146;DHT22;12308;50.948;4.706;2023-04-24T04:16:27;9.60;99.90
24146;DHT22;12308;50.948;4.706;2023-04-24T04:18:52;9.50;99.90
24146;DHT22;12308;50.948;4.706;2023-04-24T04:21:18;9.40;99.90
24146;DHT22;12308;50.948;4.706;2023-04-24T04:23:44;9.50;99.90
24146;DHT22;12308;50.948;4.706;2023-04-24T04:26:11;9.50;99.90
24146;DHT22;12308;50.948;4.706;2023-04-24T04:28:38;9.40;99.90
24146;DHT22;12308;50.948;4.706;2023-04-24T04:31:05;9.50;99.90
24146;DHT22;12308;50.948;4.706;2023-04-24T04:33:30;9.40;99.90
24146;DHT22;12308;50.948;4.706;2023-04-24T04:35:57;9.40;99.90
24146;DHT22;12308;50.948;4.706;2023-04-24T04:38:23;9.50;99.90
24146;DHT22;12308;50.948;4.706;2023-04-24T04:40:48;9.50;99.90
24146;DHT22;12308;50.948;4.706;2023-04-24T04:43:15;9.50;99.90
24146;DHT22;12308;50.948;4.706;2023-04-24T04:45:41;9.50;99.90
24146;DHT22;12308;50.948;4.706;2023-04-24T04:48:09;9.50;99.90
24146;DHT22;12308;50.948;4.706;2023-04-24T04:50:38;9.50;99.90
24146;DHT22;12308;50.948;4.706;2023-04-24T04:53:03;9.50;99.90
24146;DHT22;12308;50.948;4.706;2023-04-24T04:55:29;9.40;99.90
24146;DHT22;12308;50.948;4.706;2023-04-24T04:57:55;9.50;99.90
24146;DHT22;12308;50.948;4.706;2023-04-24T05:00:21;9.40;99.90
24146;DHT22;12308;50.948;4.706;2023-04-24T05:02:49;9.50;99.90
24146;DHT22;12308;50.948;4.706;2023-04-24T05:05:15;9.40;99.90
24146;DHT22;12308;50.948;4.706;2023-04-24T05:07:42;9.30;99.90
24146;DHT22;12308;50.948;4.706;2023-04-24T05:10:08;9.40;99.90
24146;DHT22;12308;50.948;4.706;2023-04-24T05:12:34;9.30;99.90
24146;DHT22;12308;50.948;4.706;2023-04-24T05:15:00;9.40;99.90
24146;DHT22;12308;50.948;4.706;2023-04-24T05:17:25;9.40;99.90
24146;DHT22;12308;50.948;4.706;2023-04-24T05:19:51;9.30;99.90
24146;DHT22;12308;50.948;4.706;2023-04-24T05:22:17;9.30;99.90
24146;DHT22;12308;50.948;4.706;2023-04-24T05:24:46;9.30;99.90
24146;DHT22;12308;50.948;4.706;2023-04-24T05:27:12;9.20;99.90
24146;DHT22;12308;50.948;4.706;2023-04-24T05:29:38;9.30;99.90
24146;DHT22;12308;50.948;4.706;2023-04-24T05:32:04;9.40;99.90
24146;DHT22;12308;50.948;4.706;2023-04-24T05:34:30;9.30;99.90
24146;DHT22;12308;50.948;4.706;2023-04-24T05:36:55;9.30;99.90
24146;DHT22;12308;50.948;4.706;2023-04-24T05:39:21;9.30;99.90
24146;DHT22;12308;50.948;4.706;2023-04-24T05:41:47;9.30;99.90
24146;DHT22;12308;50.948;4.706;2023-04-24T05:44:13;9.20;99.90
24146;DHT22;12308;50.948;4.706;2023-04-24T05:46:38;9.10;99.90
24146;DHT22;12308;50.948;4.706;2023-04-24T05:49:04;8.90;99.90
24146;DHT22;12308;50.948;4.706;2023-04-24T05:51:30;8.90;99.90
24146;DHT22;12308;50.948;4.706;2023-04-24T05:53:57;9.00;99.90
24146;DHT22;12308;50.948;4.706;2023-04-24T05:56:23;8.90;99.90
24146;DHT22;12308;50.948;4.706;2023-04-24T05:58:49;8.90;99.90
24146;DHT22;12308;50.948;4.706;2023-04-24T06:01:14;8.90;99.90
24146;DHT22;12308;50.948;4.706;2023-04-24T06:03:41;9.00;99.90
24146;DHT22;12308;50.948;4.706;2023-04-24T06:06:07;9.00;99.90
24146;DHT22;12308;50.948;4.706;2023-04-24T06:08:34;9.10;99.90
24146;DHT22;12308;50.948;4.706;2023-04-24T06:10:59;9.10;99.90
24146;DHT22;12308;50.948;4.706;2023-04-24T06:13:25;9.00;99.90
24146;DHT22;12308;50.948;4.706;2023-04-24T06:15:52;9.00;99.90
24146;DHT22;12308;50.948;4.706;2023-04-24T06:18:17;9.00;99.90
24146;DHT22;12308;50.948;4.706;2023-04-24T06:20:44;9.00;99.90
24146;DHT22;12308;50.948;4.706;2023-04-24T06:23:10;9.00;99.90
24146;DHT22;12308;50.948;4.706;2023-04-24T06:25:35;9.00;99.90
24146;DHT22;12308;50.948;4.706;2023-04-24T06:28:01;9.00;99.90
24146;DHT22;12308;50.948;4.706;2023-04-24T06:30:27;9.10;99.90
24146;DHT22;12308;50.948;4.706;2023-04-24T06:32:53;9.10;99.90
24146;DHT22;12308;50.948;4.706;2023-04-24T06:35:19;9.10;99.90
24146;DHT22;12308;50.948;4.706;2023-04-24T06:37:45;9.10;99.90
24146;DHT22;12308;50.948;4.706;2023-04-24T06:40:11;9.10;99.90
24146;DHT22;12308;50.948;4.706;2023-04-24T06:42:36;9.00;99.90
24146;DHT22;12308;50.948;4.706;2023-04-24T06:45:02;9.00;99.90
24146;DHT22;12308;50.948;4.706;2023-04-24T06:47:29;9.10;99.90
24146;DHT22;12308;50.948;4.706;2023-04-24T06:49:54;9.10;99.90
24146;DHT22;12308;50.948;4.706;2023-04-24T06:52:21;9.10;99.90
24146;DHT22;12308;50.948;4.706;2023-04-24T06:54:46;9.10;99.90
24146;DHT22;12308;50.948;4.706;2023-04-24T06:57:12;9.00;99.90
24146;DHT22;12308;50.948;4.706;2023-04-24T06:59:38;9.00;99.90
24146;DHT22;12308;50.948;4.706;2023-04-24T07:02:04;9.10;99.90
24146;DHT22;12308;50.948;4.706;2023-04-24T07:04:30;9.20;99.90
24146;DHT22;12308;50.948;4.706;2023-04-24T07:06:56;9.20;99.90
24146;DHT22;12308;50.948;4.706;2023-04-24T07:09:24;9.20;99.90
24146;DHT22;12308;50.948;4.706;2023-04-24T07:11:51;9.20;99.90
24146;DHT22;12308;50.948;4.706;2023-04-24T07:14:17;9.30;99.90
24146;DHT22;12308;50.948;4.706;2023-04-24T07:16:43;9.30;99.90
24146;DHT22;12308;50.948;4.706;2023-04-24T07:19:09;9.30;99.90
24146;DHT22;12308;50.948;4.706;2023-04-24T07:21:35;9.30;99.90
24146;DHT22;12308;50.948;4.706;2023-04-24T07:24:01;9.30;99.90
24146;DHT22;12308;50.948;4.706;2023-04-24T07:26:29;9.30;99.90
24146;DHT22;12308;50.948;4.706;2023-04-24T07:28:55;9.30;99.90
24146;DHT22;12308;50.948;4.706;2023-04-24T07:31:20;9.30;99.90
24146;DHT22;12308;50.948;4.706;2023-04-24T07:33:47;9.30;99.90
24146;DHT22;12308;50.948;4.706;2023-04-24T07:36:13;9.30;99.90
24146;DHT22;12308;50.948;4.706;2023-04-24T07:38:42;9.40;99.90
24146;DHT22;12308;50.948;4.706;2023-04-24T07:41:08;9.40;99.90
24146;DHT22;12308;50.948;4.706;2023-04-24T07:43:34;9.50;99.90
24146;DHT22;12308;50.948;4.706;2023-04-24T07:46:00;9.50;99.90
24146;DHT22;12308;50.948;4.706;2023-04-24T07:48:26;9.60;99.90
24146;DHT22;12308;50.948;4.706;2023-04-24T07:50:52;9.50;99.90
24146;DHT22;12308;50.948;4.706;2023-04-24T07:53:18;9.60;99.90
24146;DHT22;12308;50.948;4.706;2023-04-24T07:55:43;9.70;99.90
24146;DHT22;12308;50.948;4.706;2023-04-24T07:58:09;9.70;99.90
24146;DHT22;12308;50.948;4.706;2023-04-24T08:00:35;9.60;99.90
24146;DHT22;12308;50.948;4.706;2023-04-24T08:03:01;9.50;99.90
24146;DHT22;12308;50.948;4.706;2023-04-24T08:05:27;9.60;99.90
24146;DHT22;12308;50.948;4.706;2023-04-24T08:07:54;9.70;99.90
24146;DHT22;12308;50.948;4.706;2023-04-24T08:10:24;9.60;99.90
24146;DHT22;12308;50.948;4.706;2023-04-24T08:12:49;9.50;99.90
24146;DHT22;12308;50.948;4.706;2023-04-24T08:15:15;9.20;99.90
24146;DHT22;12308;50.948;4.706;2023-04-24T08:17:41;9.10;99.90
24146;DHT22;12308;50.948;4.706;2023-04-24T08:20:08;9.10;99.90
24146;DHT22;12308;50.948;4.706;2023-04-24T08:22:39;9.00;99.90
24146;DHT22;12308;50.948;4.706;2023-04-24T08:25:06;9.10;99.90
24146;DHT22;12308;50.948;4.706;2023-04-24T08:27:32;9.20;99.90
24146;DHT22;12308;50.948;4.706;2023-04-24T08:29:57;9.30;99.90
24146;DHT22;12308;50.948;4.706;2023-04-24T08:32:25;9.30;99.90
24146;DHT22;12308;50.948;4.706;2023-04-24T08:34:56;9.50;99.90
24146;DHT22;12308;50.948;4.706;2023-04-24T08:37:23;9.70;99.90
24146;DHT22;12308;50.948;4.706;2023-04-24T08:39:49;9.80;99.90
24146;DHT22;12308;50.948;4.706;2023-04-24T08:42:17;9.80;99.90
24146;DHT22;12308;50.948;4.706;2023-04-24T08:44:43;9.80;99.90
24146;DHT22;12308;50.948;4.706;2023-04-24T08:47:11;9.80;99.90
24146;DHT22;12308;50.948;4.706;2023-04-24T08:49:38;10.10;99.90
24146;DHT22;12308;50.948;4.706;2023-04-24T08:52:05;10.30;99.90
24146;DHT22;12308;50.948;4.706;2023-04-24T08:54:33;10.40;99.90
24146;DHT22;12308;50.948;4.706;2023-04-24T08:57:00;10.60;99.90
24146;DHT22;12308;50.948;4.706;2023-04-24T08:59:30;10.80;99.90
24146;DHT22;12308;50.948;4.706;2023-04-24T09:01:56;11.10;99.90
24146;DHT22;12308;50.948;4.706;2023-04-24T09:04:23;11.40;99.90
24146;DHT22;12308;50.948;4.706;2023-04-24T09:06:55;11.50;99.90
24146;DHT22;12308;50.948;4.706;2023-04-24T09:09:22;11.40;99.90
24146;DHT22;12308;50.948;4.706;2023-04-24T09:11:49;11.10;99.90
24146;DHT22;12308;50.948;4.706;2023-04-24T09:14:16;11.00;99.90
24146;DHT22;12308;50.948;4.706;2023-04-24T09:16:42;10.80;99.90
24146;DHT22;12308;50.948;4.706;2023-04-24T09:19:08;10.80;99.90
24146;DHT22;12308;50.948;4.706;2023-04-24T09:21:35;10.80;99.90
24146;DHT22;12308;50.948;4.706;2023-04-24T09:24:03;10.70;99.90
24146;DHT22;12308;50.948;4.706;2023-04-24T09:26:34;10.60;99.90
24146;DHT22;12308;50.948;4.706;2023-04-24T09:29:01;10.40;99.90
24146;DHT22;12308;50.948;4.706;2023-04-24T09:31:28;10.50;99.90
24146;DHT22;12308;50.948;4.706;2023-04-24T09:33:56;10.60;99.90
24146;DHT22;12308;50.948;4.706;2023-04-24T09:36:35;10.80;99.90
24146;DHT22;12308;50.948;4.706;2023-04-24T09:39:05;11.00;99.90
24146;DHT22;12308;50.948;4.706;2023-04-24T09:41:32;11.20;99.90
24146;DHT22;12308;50.948;4.706;2023-04-24T09:44:17;11.60;99.90
24146;DHT22;12308;50.948;4.706;2023-04-24T09:46:44;11.70;99.90
24146;DHT22;12308;50.948;4.706;2023-04-24T09:49:14;11.50;99.90
24146;DHT22;12308;50.948;4.706;2023-04-24T09:51:41;11.30;99.90
24146;DHT22;12308;50.948;4.706;2023-04-24T09:54:17;11.00;99.90
24146;DHT22;12308;50.948;4.706;2023-04-24T09:56:49;11.10;99.90
24146;DHT22;12308;50.948;4.706;2023-04-24T09:59:17;11.10;99.90
24146;DHT22;12308;50.948;4.706;2023-04-24T10:01:43;11.20;99.90
24146;DHT22;12308;50.948;4.706;2023-04-24T10:04:24;11.10;99.90
24146;DHT22;12308;50.948;4.706;2023-04-24T10:06:51;11.10;99.90
24146;DHT22;12308;50.948;4.706;2023-04-24T10:09:19;11.20;99.90
24146;DHT22;12308;50.948;4.706;2023-04-24T10:11:47;11.30;99.90
24146;DHT22;12308;50.948;4.706;2023-04-24T10:14:18;11.60;99.90
24146;DHT22;12308;50.948;4.706;2023-04-24T10:16:45;11.90;99.90
24146;DHT22;12308;50.948;4.706;2023-04-24T10:19:14;12.10;99.90
24146;DHT22;12308;50.948;4.706;2023-04-24T10:21:42;12.10;99.90
24146;DHT22;12308;50.948;4.706;2023-04-24T10:24:13;12.10;99.90
24146;DHT22;12308;50.948;4.706;2023-04-24T10:26:40;12.00;99.90
24146;DHT22;12308;50.948;4.706;2023-04-24T10:29:06;11.80;99.90
24146;DHT22;12308;50.948;4.706;2023-04-24T10:31:36;12.00;99.90
24146;DHT22;12308;50.948;4.706;2023-04-24T10:34:04;12.10;99.90
24146;DHT22;12308;50.948;4.706;2023-04-24T10:36:31;12.20;99.90
24146;DHT22;12308;50.948;4.706;2023-04-24T10:39:00;12.00;99.90
24146;DHT22;12308;50.948;4.706;2023-04-24T10:41:26;11.80;99.90
24146;DHT22;12308;50.948;4.706;2023-04-24T10:44:12;11.70;99.90
24146;DHT22;12308;50.948;4.706;2023-04-24T10:46:39;11.70;99.90
24146;DHT22;12308;50.948;4.706;2023-04-24T10:49:08;11.70;99.90
24146;DHT22;12308;50.948;4.706;2023-04-24T10:56:56;12.20;99.90
24146;DHT22;12308;50.948;4.706;2023-04-24T10:59:39;12.10;99.90
24146;DHT22;12308;50.948;4.706;2023-04-24T11:02:07;12.20;99.90
24146;DHT22;12308;50.948;4.706;2023-04-24T11:04:33;12.10;99.90
24146;DHT22;12308;50.948;4.706;2023-04-24T11:07:01;12.10;99.90
24146;DHT22;12308;50.948;4.706;2023-04-24T11:09:28;12.00;99.90
24146;DHT22;12308;50.948;4.706;2023-04-24T11:12:09;12.10;99.90
24146;DHT22;12308;50.948;4.706;2023-04-24T11:15:02;12.30;99.90
24146;DHT22;12308;50.948;4.706;2023-04-24T11:17:36;12.20;99.90
24146;DHT22;12308;50.948;4.706;2023-04-24T11:20:11;12.40;99.90
24146;DHT22;12308;50.948;4.706;2023-04-24T11:22:39;12.50;99.90
24146;DHT22;12308;50.948;4.706;2023-04-24T11:25:06;12.60;99.90
24146;DHT22;12308;50.948;4.706;2023-04-24T11:27:41;12.40;99.90
24146;DHT22;12308;50.948;4.706;2023-04-24T11:30:08;12.50;99.90
24146;DHT22;12308;50.948;4.706;2023-04-24T11:35:02;12.70;99.90
24146;DHT22;12308;50.948;4.706;2023-04-24T11:37:40;13.00;99.90
24146;DHT22;12308;50.948;4.706;2023-04-24T11:40:07;12.90;99.90
24146;DHT22;12308;50.948;4.706;2023-04-24T11:42:35;13.20;99.90
24146;DHT22;12308;50.948;4.706;2023-04-24T11:45:01;13.30;99.90
24146;DHT22;12308;50.948;4.706;2023-04-24T11:47:29;13.20;99.90
24146;DHT22;12308;50.948;4.706;2023-04-24T11:49:55;13.00;99.90
24146;DHT22;12308;50.948;4.706;2023-04-24T11:52:21;12.80;99.90
24146;DHT22;12308;50.948;4.706;2023-04-24T11:54:50;12.90;99.90
24146;DHT22;12308;50.948;4.706;2023-04-24T11:57:17;12.90;99.90
24146;DHT22;12308;50.948;4.706;2023-04-24T11:59:44;13.10;99.90
24146;DHT22;12308;50.948;4.706;2023-04-24T12:02:23;13.10;99.90
24146;DHT22;12308;50.948;4.706;2023-04-24T12:04:48;13.10;99.90
24146;DHT22;12308;50.948;4.706;2023-04-24T12:07:14;13.00;99.90
24146;DHT22;12308;50.948;4.706;2023-04-24T12:12:08;12.80;99.90
24146;DHT22;12308;50.948;4.706;2023-04-24T12:15:06;12.80;99.90
24146;DHT22;12308;50.948;4.706;2023-04-24T12:17:30;12.80;99.90
24146;DHT22;12308;50.948;4.706;2023-04-24T12:20:06;12.80;99.90
24146;DHT22;12308;50.948;4.706;2023-04-24T12:22:53;13.00;99.90
24146;DHT22;12308;50.948;4.706;2023-04-24T12:25:27;13.00;99.90
24146;DHT22;12308;50.948;4.706;2023-04-24T12:28:09;13.00;99.90
24146;DHT22;12308;50.948;4.706;2023-04-24T12:30:48;13.10;99.90
24146;DHT22;12308;50.948;4.706;2023-04-24T12:33:21;13.40;99.90
24146;DHT22;12308;50.948;4.706;2023-04-24T12:35:51;13.20;99.90
24146;DHT22;12308;50.948;4.706;2023-04-24T12:38:21;13.20;99.90
24146;DHT22;12308;50.948;4.706;2023-04-24T12:40:47;13.10;99.90
24146;DHT22;12308;50.948;4.706;2023-04-24T12:43:17;13.20;99.90
24146;DHT22;12308;50.948;4.706;2023-04-24T12:45:43;13.30;99.90
24146;DHT22;12308;50.948;4.706;2023-04-24T12:48:10;13.30;99.90
24146;DHT22;12308;50.948;4.706;2023-04-24T12:50:38;13.30;99.90
24146;DHT22;12308;50.948;4.706;2023-04-24T12:53:03;13.20;99.90
24146;DHT22;12308;50.948;4.706;2023-04-24T12:55:29;13.50;99.90
24146;DHT22;12308;50.948;4.706;2023-04-24T12:57:55;13.50;99.90
24146;DHT22;12308;50.948;4.706;2023-04-24T13:00:21;13.70;99.90
24146;DHT22;12308;50.948;4.706;2023-04-24T13:02:47;13.80;99.90
24146;DHT22;12308;50.948;4.706;2023-04-24T13:05:13;14.00;99.90
24146;DHT22;12308;50.948;4.706;2023-04-24T13:07:39;14.10;99.90
24146;DHT22;12308;50.948;4.706;2023-04-24T13:10:05;14.00;99.90
24146;DHT22;12308;50.948;4.706;2023-04-24T13:12:32;14.30;99.90
24146;DHT22;12308;50.948;4.706;2023-04-24T13:14:58;14.30;99.90
24146;DHT22;12308;50.948;4.706;2023-04-24T13:17:24;14.50;99.90
24146;DHT22;12308;50.948;4.706;2023-04-24T13:19:51;14.30;99.90
24146;DHT22;12308;50.948;4.706;2023-04-24T13:22:17;14.10;99.90
24146;DHT22;12308;50.948;4.706;2023-04-24T13:24:46;14.20;99.90
24146;DHT22;12308;50.948;4.706;2023-04-24T13:27:15;14.00;99.90
24146;DHT22;12308;50.948;4.706;2023-04-24T13:29:41;13.90;99.90
24146;DHT22;12308;50.948;4.706;2023-04-24T13:32:08;14.00;99.90
24146;DHT22;12308;50.948;4.706;2023-04-24T13:34:34;13.90;99.90
24146;DHT22;12308;50.948;4.706;2023-04-24T13:37:03;13.70;99.90
24146;DHT22;12308;50.948;4.706;2023-04-24T13:39:29;13.50;99.90
24146;DHT22;12308;50.948;4.706;2023-04-24T13:41:55;13.40;99.90
24146;DHT22;12308;50.948;4.706;2023-04-24T13:44:21;13.40;99.90
24146;DHT22;12308;50.948;4.706;2023-04-24T13:46:49;13.50;99.90
24146;DHT22;12308;50.948;4.706;2023-04-24T13:49:15;13.70;99.90
24146;DHT22;12308;50.948;4.706;2023-04-24T13:51:42;13.90;99.90
24146;DHT22;12308;50.948;4.706;2023-04-24T13:54:08;13.90;99.90
24146;DHT22;12308;50.948;4.706;2023-04-24T13:56:34;13.90;99.90
24146;DHT22;12308;50.948;4.706;2023-04-24T13:59:00;13.80;99.90
24146;DHT22;12308;50.948;4.706;2023-04-24T14:01:25;13.80;99.90
24146;DHT22;12308;50.948;4.706;2023-04-24T14:03:52;13.70;99.90
24146;DHT22;12308;50.948;4.706;2023-04-24T14:06:19;13.60;99.90
24146;DHT22;12308;50.948;4.706;2023-04-24T14:08:45;13.60;99.90
24146;DHT22;12308;50.948;4.706;2023-04-24T14:11:10;13.70;99.90
24146;DHT22;12308;50.948;4.706;2023-04-24T14:13:37;13.80;99.90
24146;DHT22;12308;50.948;4.706;2023-04-24T14:16:03;14.10;99.90
24146;DHT22;12308;50.948;4.706;2023-04-24T14:18:29;14.40;99.90
24146;DHT22;12308;50.948;4.706;2023-04-24T14:20:55;14.50;99.90
24146;DHT22;12308;50.948;4.706;2023-04-24T14:23:21;14.40;99.90
24146;DHT22;12308;50.948;4.706;2023-04-24T14:25:46;14.40;99.90
24146;DHT22;12308;50.948;4.706;2023-04-24T14:28:16;14.40;99.90
24146;DHT22;12308;50.948;4.706;2023-04-24T14:30:42;14.40;99.90
24146;DHT22;12308;50.948;4.706;2023-04-24T14:33:08;14.30;99.90
24146;DHT22;12308;50.948;4.706;2023-04-24T14:35:33;14.20;99.90
24146;DHT22;12308;50.948;4.706;2023-04-24T14:38:00;14.10;99.90
24146;DHT22;12308;50.948;4.706;2023-04-24T14:40:26;14.00;99.90
24146;DHT22;12308;50.948;4.706;2023-04-24T14:42:52;13.70;99.90
24146;DHT22;12308;50.948;4.706;2023-04-24T14:45:18;13.50;99.90
24146;DHT22;12308;50.948;4.706;2023-04-24T14:47:44;13.40;99.90
24146;DHT22;12308;50.948;4.706;2023-04-24T14:50:10;13.50;99.90
24146;DHT22;12308;50.948;4.706;2023-04-24T14:52:38;13.60;99.90
24146;DHT22;12308;50.948;4.706;2023-04-24T14:55:04;13.60;99.90
24146;DHT22;12308;50.948;4.706;2023-04-24T14:57:30;13.70;99.90
24146;DHT22;12308;50.948;4.706;2023-04-24T14:59:56;13.90;99.90
24146;DHT22;12308;50.948;4.706;2023-04-24T15:02:21;13.90;99.90
24146;DHT22;12308;50.948;4.706;2023-04-24T15:04:47;13.90;99.90
24146;DHT22;12308;50.948;4.706;2023-04-24T15:07:13;13.60;99.90
24146;DHT22;12308;50.948;4.706;2023-04-24T15:09:38;13.40;99.90
24146;DHT22;12308;50.948;4.706;2023-04-24T15:12:05;13.40;99.90
24146;DHT22;12308;50.948;4.706;2023-04-24T15:14:30;13.40;99.90
24146;DHT22;12308;50.948;4.706;2023-04-24T15:16:56;13.60;99.90
24146;DHT22;12308;50.948;4.706;2023-04-24T15:19:22;13.70;99.90
24146;DHT22;12308;50.948;4.706;2023-04-24T15:21:47;13.80;99.90
24146;DHT22;12308;50.948;4.706;2023-04-24T15:24:13;13.90;99.90
24146;DHT22;12308;50.948;4.706;2023-04-24T15:26:39;13.80;99.90
24146;DHT22;12308;50.948;4.706;2023-04-24T15:29:04;13.70;99.90
24146;DHT22;12308;50.948;4.706;2023-04-24T15:31:30;13.70;99.90
24146;DHT22;12308;50.948;4.706;2023-04-24T15:33:56;13.50;99.90
24146;DHT22;12308;50.948;4.706;2023-04-24T15:36:21;13.50;99.90
24146;DHT22;12308;50.948;4.706;2023-04-24T15:38:47;13.50;99.90
24146;DHT22;12308;50.948;4.706;2023-04-24T15:41:13;13.40;99.90
24146;DHT22;12308;50.948;4.706;2023-04-24T15:43:39;13.30;99.90
24146;DHT22;12308;50.948;4.706;2023-04-24T15:46:07;13.20;99.90